sensor_id;sensor_type;location;lat;lon;timestamp;pressure;altitude;pressure_sealevel;temperature;humidity
13604;BME280;24578;48.264;11.436;2022-10-17T00:02:24;96755.88;;;9.94;100.00
13604;BME280;24578;48.264;11.436;2022-10-17T00:05:24;96762.06;;;9.92;100.00
13604;BME280;24578;48.264;11.436;2022-10-17T00:08:24;96753.69;;;9.88;100.00
13604;BME280;24578;48.264;11.436;2022-10-17T00:11:25;96753.84;;;9.85;100.00
13604;BME280;24578;48.264;11.436;2022-10-17T00:14:25;96756.63;;;9.82;100.00
13604;BME280;24578;48.264;11.436;2022-10-17T00:17:25;96760.22;;;9.79;100.00
13604;BME280;24578;48.264;11.436;2022-10-17T00:20:26;96763.00;;;9.76;100.00
13604;BME280;24578;48.264;11.436;2022-10-17T00:23:26;96764.00;;;9.73;100.00
13604;BME280;24578;48.264;11.436;2022-10-17T00:26:27;96766.78;;;9.70;100.00
13604;BME280;24578;48.264;11.436;2022-10-17T00:29:28;96765.19;;;9.68;100.00
13604;BME280;24578;48.264;11.436;2022-10-17T00:32:28;96771.41;;;9.65;100.00
13604;BME280;24578;48.264;11.436;2022-10-17T00:35:29;96769.00;;;9.62;100.00
13604;BME280;24578;48.264;11.436;2022-10-17T00:38:29;96764.00;;;9.59;100.00
13604;BME280;24578;48.264;11.436;2022-10-17T00:41:30;96771.97;;;9.56;100.00
13604;BME280;24578;48.264;11.436;2022-10-17T00:47:31;96775.72;;;9.50;100.00
13604;BME280;24578;48.264;11.436;2022-10-17T00:50:32;96773.34;;;9.47;100.00
13604;BME280;24578;48.264;11.436;2022-10-17T00:53:33;96775.19;;;9.45;100.00
13604;BME280;24578;48.264;11.436;2022-10-17T00:56:35;96783.00;;;9.43;100.00
13604;BME280;24578;48.264;11.436;2022-10-17T00:59:36;96772.66;;;9.43;100.00
13604;BME280;24578;48.264;11.436;2022-10-17T01:02:37;96779.50;;;9.44;100.00
13604;BME280;24578;48.264;11.436;2022-10-17T01:05:37;96777.75;;;9.45;100.00
13604;BME280;24578;48.264;11.436;2022-10-17T01:08:38;96776.91;;;9.44;100.00
13604;BME280;24578;48.264;11.436;2022-10-17T01:11:48;96775.25;;;9.43;100.00
13604;BME280;24578;48.264;11.436;2022-10-17T01:27:30;96772.75;;;9.27;100.00
13604;BME280;24578;48.264;11.436;2022-10-17T01:30:47;96772.09;;;9.24;100.00
13604;BME280;24578;48.264;11.436;2022-10-17T01:37:16;96769.88;;;9.18;100.00
13604;BME280;24578;48.264;11.436;2022-10-17T01:40:33;96778.63;;;9.15;100.00
13604;BME280;24578;48.264;11.436;2022-10-17T01:43:38;96772.78;;;9.11;100.00
13604;BME280;24578;48.264;11.436;2022-10-17T01:46:40;96774.66;;;9.09;100.00
13604;BME280;24578;48.264;11.436;2022-10-17T01:49:42;96768.47;;;9.12;100.00
13604;BME280;24578;48.264;11.436;2022-10-17T01:52:45;96769.22;;;9.14;100.00
13604;BME280;24578;48.264;11.436;2022-10-17T01:55:47;96768.38;;;9.13;100.00
13604;BME280;24578;48.264;11.436;2022-10-17T01:58:50;96772.44;;;9.18;100.00
13604;BME280;24578;48.264;11.436;2022-10-17T02:01:52;96761.94;;;9.21;100.00
13604;BME280;24578;48.264;11.436;2022-10-17T02:04:53;96761.28;;;9.17;100.00
13604;BME280;24578;48.264;11.436;2022-10-17T02:07:55;96765.03;;;9.11;100.00
13604;BME280;24578;48.264;11.436;2022-10-17T02:11:00;96766.06;;;9.09;100.00
13604;BME280;24578;48.264;11.436;2022-10-17T02:26:31;96760.13;;;8.92;100.00
13604;BME280;24578;48.264;11.436;2022-10-17T02:29:35;96760.38;;;8.88;100.00
13604;BME280;24578;48.264;11.436;2022-10-17T02:32:43;96768.28;;;8.84;100.00
13604;BME280;24578;48.264;11.436;2022-10-17T02:35:46;96767.53;;;8.82;100.00
13604;BME280;24578;48.264;11.436;2022-10-17T02:38:48;96760.38;;;8.88;100.00
13604;BME280;24578;48.264;11.436;2022-10-17T02:41:49;96771.34;;;8.91;100.00
13604;BME280;24578;48.264;11.436;2022-10-17T02:44:51;96770.72;;;8.88;100.00
13604;BME280;24578;48.264;11.436;2022-10-17T02:47:57;96776.88;;;8.85;100.00
13604;BME280;24578;48.264;11.436;2022-10-17T02:57:41;96783.47;;;8.75;100.00
13604;BME280;24578;48.264;11.436;2022-10-17T03:00:43;96783.72;;;8.70;100.00
13604;BME280;24578;48.264;11.436;2022-10-17T03:03:44;96783.09;;;8.66;100.00
13604;BME280;24578;48.264;11.436;2022-10-17T03:06:45;96782.44;;;8.63;100.00
13604;BME280;24578;48.264;11.436;2022-10-17T03:09:45;96787.75;;;8.60;100.00
13604;BME280;24578;48.264;11.436;2022-10-17T03:12:46;96800.91;;;8.55;100.00
13604;BME280;24578;48.264;11.436;2022-10-17T03:15:46;96792.50;;;8.51;100.00
13604;BME280;24578;48.264;11.436;2022-10-17T03:18:46;96795.25;;;8.48;100.00
13604;BME280;24578;48.264;11.436;2022-10-17T03:21:46;96792.81;;;8.45;100.00
13604;BME280;24578;48.264;11.436;2022-10-17T03:24:46;96797.22;;;8.43;100.00
13604;BME280;24578;48.264;11.436;2022-10-17T03:27:47;96799.06;;;8.41;100.00
13604;BME280;24578;48.264;11.436;2022-10-17T03:30:47;96793.13;;;8.39;100.00
13604;BME280;24578;48.264;11.436;2022-10-17T03:33:47;96795.06;;;8.35;100.00
13604;BME280;24578;48.264;11.436;2022-10-17T03:36:49;96788.34;;;8.33;100.00
13604;BME280;24578;48.264;11.436;2022-10-17T03:39:50;96792.75;;;8.31;100.00
13604;BME280;24578;48.264;11.436;2022-10-17T03:42:50;96792.03;;;8.27;100.00
13604;BME280;24578;48.264;11.436;2022-10-17T03:45:50;96786.22;;;8.23;100.00
13604;BME280;24578;48.264;11.436;2022-10-17T03:48:51;96794.88;;;8.22;100.00
13604;BME280;24578;48.264;11.436;2022-10-17T03:51:51;96784.66;;;8.21;100.00
13604;BME280;24578;48.264;11.436;2022-10-17T03:54:51;96799.38;;;8.19;100.00
13604;BME280;24578;48.264;11.436;2022-10-17T03:57:51;96796.03;;;8.17;100.00
13604;BME280;24578;48.264;11.436;2022-10-17T04:00:51;96797.06;;;8.14;100.00
13604;BME280;24578;48.264;11.436;2022-10-17T04:03:52;96802.38;;;8.11;100.00
13604;BME280;24578;48.264;11.436;2022-10-17T04:06:53;96811.09;;;8.08;100.00
13604;BME280;24578;48.264;11.436;2022-10-17T04:09:53;96808.75;;;8.04;100.00
13604;BME280;24578;48.264;11.436;2022-10-17T04:12:53;96814.91;;;8.01;100.00
13604;BME280;24578;48.264;11.436;2022-10-17T04:15:57;96816.72;;;7.99;100.00
13604;BME280;24578;48.264;11.436;2022-10-17T04:18:58;96821.22;;;7.96;100.00
13604;BME280;24578;48.264;11.436;2022-10-17T04:21:58;96822.22;;;7.93;100.00
13604;BME280;24578;48.264;11.436;2022-10-17T04:24:59;96815.47;;;7.90;100.00
13604;BME280;24578;48.264;11.436;2022-10-17T04:27:59;96821.69;;;7.86;100.00
13604;BME280;24578;48.264;11.436;2022-10-17T04:31:03;96826.13;;;7.84;100.00
13604;BME280;24578;48.264;11.436;2022-10-17T04:34:04;96826.28;;;7.81;100.00
13604;BME280;24578;48.264;11.436;2022-10-17T04:37:04;96824.59;;;7.80;100.00
13604;BME280;24578;48.264;11.436;2022-10-17T04:40:04;96822.94;;;7.79;100.00
13604;BME280;24578;48.264;11.436;2022-10-17T04:43:05;96828.09;;;7.79;100.00
13604;BME280;24578;48.264;11.436;2022-10-17T04:46:06;96828.25;;;7.76;100.00
13604;BME280;24578;48.264;11.436;2022-10-17T04:49:07;96825.75;;;7.74;100.00
13604;BME280;24578;48.264;11.436;2022-10-17T04:52:07;96830.16;;;7.72;100.00
13604;BME280;24578;48.264;11.436;2022-10-17T04:55:07;96842.38;;;7.69;100.00
13604;BME280;24578;48.264;11.436;2022-10-17T04:58:08;96836.50;;;7.65;100.00
13604;BME280;24578;48.264;11.436;2022-10-17T05:01:11;96842.66;;;7.62;100.00
13604;BME280;24578;48.264;11.436;2022-10-17T05:04:11;96836.00;;;7.58;100.00
13604;BME280;24578;48.264;11.436;2022-10-17T05:07:11;96834.50;;;7.54;100.00
13604;BME280;24578;48.264;11.436;2022-10-17T05:10:11;96832.06;;;7.51;100.00
13604;BME280;24578;48.264;11.436;2022-10-17T05:13:12;96840.03;;;7.46;100.00
13604;BME280;24578;48.264;11.436;2022-10-17T05:16:12;96841.00;;;7.44;100.00
13604;BME280;24578;48.264;11.436;2022-10-17T05:19:12;96847.97;;;7.42;100.00
13604;BME280;24578;48.264;11.436;2022-10-17T05:22:12;96857.53;;;7.40;100.00
13604;BME280;24578;48.264;11.436;2022-10-17T05:25:13;96855.88;;;7.39;100.00
13604;BME280;24578;48.264;11.436;2022-10-17T05:28:13;96869.66;;;7.38;100.00
13604;BME280;24578;48.264;11.436;2022-10-17T05:31:13;96868.00;;;7.37;100.00
13604;BME280;24578;48.264;11.436;2022-10-17T05:34:14;96866.31;;;7.36;100.00
13604;BME280;24578;48.264;11.436;2022-10-17T05:37:14;96870.63;;;7.35;100.00
13604;BME280;24578;48.264;11.436;2022-10-17T05:40:14;96875.78;;;7.35;100.00
13604;BME280;24578;48.264;11.436;2022-10-17T05:43:14;96871.47;;;7.36;100.00
13604;BME280;24578;48.264;11.436;2022-10-17T05:46:15;96867.75;;;7.41;100.00
13604;BME280;24578;48.264;11.436;2022-10-17T05:49:15;96873.44;;;7.48;100.00
13604;BME280;24578;48.264;11.436;2022-10-17T05:52:15;96876.78;;;7.50;100.00
13604;BME280;24578;48.264;11.436;2022-10-17T05:55:16;96885.03;;;7.57;100.00
13604;BME280;24578;48.264;11.436;2022-10-17T05:58:16;96879.75;;;7.60;100.00
13604;BME280;24578;48.264;11.436;2022-10-17T06:01:16;96874.34;;;7.65;100.00
13604;BME280;24578;48.264;11.436;2022-10-17T06:04:16;96884.31;;;7.71;100.00
13604;BME280;24578;48.264;11.436;2022-10-17T06:07:17;96883.13;;;7.78;100.00
13604;BME280;24578;48.264;11.436;2022-10-17T06:10:17;96885.41;;;7.84;100.00
13604;BME280;24578;48.264;11.436;2022-10-17T06:13:17;96889.31;;;7.91;100.00
13604;BME280;24578;48.264;11.436;2022-10-17T06:16:18;96895.06;;;7.97;100.00
13604;BME280;24578;48.264;11.436;2022-10-17T06:19:18;96897.03;;;8.09;100.00
13604;BME280;24578;48.264;11.436;2022-10-17T06:22:18;96898.66;;;8.28;100.00
13604;BME280;24578;48.264;11.436;2022-10-17T06:25:19;96899.81;;;8.38;100.00
13604;BME280;24578;48.264;11.436;2022-10-17T06:28:19;96903.75;;;8.45;100.00
13604;BME280;24578;48.264;11.436;2022-10-17T06:31:19;96908.13;;;8.61;100.00
13604;BME280;24578;48.264;11.436;2022-10-17T06:34:19;96901.03;;;8.80;100.00
13604;BME280;24578;48.264;11.436;2022-10-17T06:37:19;96904.28;;;9.00;100.00
13604;BME280;24578;48.264;11.436;2022-10-17T06:40:20;96903.25;;;9.19;100.00
13604;BME280;24578;48.264;11.436;2022-10-17T06:43:20;96897.53;;;9.44;100.00
13604;BME280;24578;48.264;11.436;2022-10-17T06:46:20;96901.28;;;9.69;100.00
13604;BME280;24578;48.264;11.436;2022-10-17T06:49:20;96902.34;;;9.95;100.00
13604;BME280;24578;48.264;11.436;2022-10-17T06:52:21;96904.88;;;10.26;100.00
13604;BME280;24578;48.264;11.436;2022-10-17T06:55:21;96918.47;;;10.58;100.00
13604;BME280;24578;48.264;11.436;2022-10-17T06:58:21;96921.44;;;10.94;100.00
13604;BME280;24578;48.264;11.436;2022-10-17T07:01:22;96922.94;;;11.25;100.00
13604;BME280;24578;48.264;11.436;2022-10-17T07:04:22;96926.88;;;11.58;100.00
13604;BME280;24578;48.264;11.436;2022-10-17T07:07:22;96938.31;;;11.95;100.00
13604;BME280;24578;48.264;11.436;2022-10-17T07:10:22;96944.19;;;12.37;100.00
13604;BME280;24578;48.264;11.436;2022-10-17T07:13:23;96935.47;;;13.50;100.00
13604;BME280;24578;48.264;11.436;2022-10-17T07:16:23;96932.56;;;16.23;100.00
13604;BME280;24578;48.264;11.436;2022-10-17T07:19:23;96927.75;;;18.75;90.98
13604;BME280;24578;48.264;11.436;2022-10-17T07:22:24;96924.16;;;20.47;79.28
13604;BME280;24578;48.264;11.436;2022-10-17T07:25:24;96929.31;;;21.68;69.62
13604;BME280;24578;48.264;11.436;2022-10-17T07:28:24;96925.19;;;23.11;64.50
13604;BME280;24578;48.264;11.436;2022-10-17T07:31:24;96926.09;;;24.35;62.08
13604;BME280;24578;48.264;11.436;2022-10-17T07:34:25;96923.13;;;25.63;56.09
13604;BME280;24578;48.264;11.436;2022-10-17T07:37:26;96932.09;;;25.83;45.82
13604;BME280;24578;48.264;11.436;2022-10-17T07:40:27;96931.53;;;26.80;44.46
13604;BME280;24578;48.264;11.436;2022-10-17T07:43:28;96926.50;;;27.61;40.95
13604;BME280;24578;48.264;11.436;2022-10-17T07:46:28;96919.25;;;28.69;38.41
13604;BME280;24578;48.264;11.436;2022-10-17T07:49:28;96924.50;;;28.96;35.49
13604;BME280;24578;48.264;11.436;2022-10-17T07:52:29;96914.75;;;29.54;35.01
13604;BME280;24578;48.264;11.436;2022-10-17T07:55:29;96921.69;;;29.23;35.22
13604;BME280;24578;48.264;11.436;2022-10-17T07:58:29;96921.13;;;29.53;33.72
13604;BME280;24578;48.264;11.436;2022-10-17T08:01:30;96918.81;;;30.14;33.31
13604;BME280;24578;48.264;11.436;2022-10-17T08:04:30;96922.88;;;30.67;31.10
13604;BME280;24578;48.264;11.436;2022-10-17T08:07:30;96921.44;;;30.64;30.39
13604;BME280;24578;48.264;11.436;2022-10-17T08:10:31;96913.00;;;31.17;29.45
13604;BME280;24578;48.264;11.436;2022-10-17T08:13:31;96921.38;;;31.81;28.53
13604;BME280;24578;48.264;11.436;2022-10-17T08:16:31;96916.13;;;32.10;28.69
13604;BME280;24578;48.264;11.436;2022-10-17T08:19:32;96919.06;;;32.44;27.81
13604;BME280;24578;48.264;11.436;2022-10-17T08:22:32;96921.25;;;33.12;26.85
13604;BME280;24578;48.264;11.436;2022-10-17T08:25:32;96908.75;;;33.18;26.89
13604;BME280;24578;48.264;11.436;2022-10-17T08:28:36;96917.53;;;33.59;26.13
13604;BME280;24578;48.264;11.436;2022-10-17T08:31:36;96914.84;;;33.13;26.73
13604;BME280;24578;48.264;11.436;2022-10-17T08:34:37;96925.56;;;33.13;26.86
13604;BME280;24578;48.264;11.436;2022-10-17T08:37:37;96923.47;;;33.44;26.65
13604;BME280;24578;48.264;11.436;2022-10-17T08:40:37;96925.88;;;33.92;26.21
13604;BME280;24578;48.264;11.436;2022-10-17T08:46:46;96932.78;;;34.05;25.75
13604;BME280;24578;48.264;11.436;2022-10-17T08:49:48;96923.78;;;34.33;25.84
13604;BME280;24578;48.264;11.436;2022-10-17T08:52:52;96922.38;;;34.65;25.40
13604;BME280;24578;48.264;11.436;2022-10-17T08:55:53;96920.25;;;35.11;25.07
13604;BME280;24578;48.264;11.436;2022-10-17T08:58:53;96912.13;;;35.06;25.59
13604;BME280;24578;48.264;11.436;2022-10-17T09:02:10;96914.31;;;35.09;25.25
13604;BME280;24578;48.264;11.436;2022-10-17T09:11:42;96917.94;;;33.68;26.19
13604;BME280;24578;48.264;11.436;2022-10-17T09:18:18;96928.38;;;33.64;26.89
13604;BME280;24578;48.264;11.436;2022-10-17T09:24:37;96926.13;;;33.90;27.50
13604;BME280;24578;48.264;11.436;2022-10-17T09:30:53;96918.34;;;32.49;29.21
13604;BME280;24578;48.264;11.436;2022-10-17T09:33:55;96930.53;;;31.73;29.92
13604;BME280;24578;48.264;11.436;2022-10-17T09:36:59;96921.63;;;31.19;30.97
13604;BME280;24578;48.264;11.436;2022-10-17T09:40:00;96927.63;;;30.95;31.50
13604;BME280;24578;48.264;11.436;2022-10-17T09:43:01;96931.66;;;31.05;31.92
13604;BME280;24578;48.264;11.436;2022-10-17T09:46:04;96930.72;;;30.80;32.96
13604;BME280;24578;48.264;11.436;2022-10-17T09:49:09;96928.84;;;30.99;32.26
13604;BME280;24578;48.264;11.436;2022-10-17T09:52:28;96938.94;;;30.79;32.59
13604;BME280;24578;48.264;11.436;2022-10-17T09:58:51;96938.25;;;29.70;33.84
13604;BME280;24578;48.264;11.436;2022-10-17T10:01:53;96946.25;;;29.70;34.75
13604;BME280;24578;48.264;11.436;2022-10-17T10:05:16;96945.06;;;29.91;34.44
13604;BME280;24578;48.264;11.436;2022-10-17T10:08:18;96950.97;;;29.36;35.97
13604;BME280;24578;48.264;11.436;2022-10-17T10:11:22;96948.47;;;28.96;35.51
13604;BME280;24578;48.264;11.436;2022-10-17T10:14:27;96942.66;;;29.12;35.29
13604;BME280;24578;48.264;11.436;2022-10-17T10:17:31;96938.06;;;29.33;35.13
13604;BME280;24578;48.264;11.436;2022-10-17T10:20:34;96943.63;;;29.63;34.87
13604;BME280;24578;48.264;11.436;2022-10-17T10:23:35;96937.41;;;29.76;33.91
13604;BME280;24578;48.264;11.436;2022-10-17T10:29:42;96942.56;;;29.39;34.85
13604;BME280;24578;48.264;11.436;2022-10-17T10:32:48;96943.19;;;29.67;34.89
13604;BME280;24578;48.264;11.436;2022-10-17T10:35:56;96944.31;;;29.84;34.85
13604;BME280;24578;48.264;11.436;2022-10-17T10:38:56;96945.44;;;29.38;35.49
13604;BME280;24578;48.264;11.436;2022-10-17T10:41:57;96951.19;;;29.28;35.42
13604;BME280;24578;48.264;11.436;2022-10-17T10:51:18;96933.94;;;30.01;34.40
13604;BME280;24578;48.264;11.436;2022-10-17T10:54:53;96934.75;;;30.02;34.91
13604;BME280;24578;48.264;11.436;2022-10-17T10:57:46;96929.31;;;30.15;33.87
13604;BME280;24578;48.264;11.436;2022-10-17T11:00:49;96931.44;;;30.06;35.14
13604;BME280;24578;48.264;11.436;2022-10-17T11:07:12;96926.06;;;29.81;33.83
13604;BME280;24578;48.264;11.436;2022-10-17T11:10:31;96931.59;;;29.54;34.28
13604;BME280;24578;48.264;11.436;2022-10-17T11:13:40;96928.44;;;29.96;34.23
13604;BME280;24578;48.264;11.436;2022-10-17T11:16:46;96920.31;;;30.10;34.08
13604;BME280;24578;48.264;11.436;2022-10-17T11:23:18;96912.09;;;30.11;32.97
13604;BME280;24578;48.264;11.436;2022-10-17T11:26:30;96922.47;;;29.69;33.17
13604;BME280;24578;48.264;11.436;2022-10-17T11:29:41;96921.09;;;29.59;35.06
13604;BME280;24578;48.264;11.436;2022-10-17T11:32:50;96925.88;;;29.51;34.12
13604;BME280;24578;48.264;11.436;2022-10-17T11:35:54;96913.16;;;29.78;33.43
13604;BME280;24578;48.264;11.436;2022-10-17T11:42:01;96912.47;;;29.64;33.26
13604;BME280;24578;48.264;11.436;2022-10-17T11:45:10;96909.00;;;29.57;33.34
13604;BME280;24578;48.264;11.436;2022-10-17T11:48:35;96912.84;;;29.68;33.94
13604;BME280;24578;48.264;11.436;2022-10-17T11:51:47;96912.09;;;29.54;33.27
13604;BME280;24578;48.264;11.436;2022-10-17T11:54:53;96916.44;;;29.48;34.66
13604;BME280;24578;48.264;11.436;2022-10-17T12:07:18;96909.84;;;29.19;34.89
13604;BME280;24578;48.264;11.436;2022-10-17T12:16:36;96899.69;;;29.02;35.51
13604;BME280;24578;48.264;11.436;2022-10-17T12:19:37;96903.13;;;29.09;34.59
13604;BME280;24578;48.264;11.436;2022-10-17T12:22:37;96904.78;;;29.04;34.83
13604;BME280;24578;48.264;11.436;2022-10-17T12:28:48;96902.09;;;29.10;34.16
13604;BME280;24578;48.264;11.436;2022-10-17T12:31:48;96904.31;;;28.75;34.57
13604;BME280;24578;48.264;11.436;2022-10-17T12:34:52;96894.97;;;28.32;34.97
13604;BME280;24578;48.264;11.436;2022-10-17T12:40:54;96897.44;;;28.26;34.96
13604;BME280;24578;48.264;11.436;2022-10-17T12:43:55;96895.81;;;27.92;35.07
13604;BME280;24578;48.264;11.436;2022-10-17T12:47:26;96902.78;;;28.00;35.77
13604;BME280;24578;48.264;11.436;2022-10-17T12:50:58;96899.91;;;28.21;36.55
13604;BME280;24578;48.264;11.436;2022-10-17T12:56:48;96907.91;;;28.15;36.17
13604;BME280;24578;48.264;11.436;2022-10-17T12:59:48;96897.88;;;28.17;36.76
13604;BME280;24578;48.264;11.436;2022-10-17T13:02:49;96896.22;;;28.22;35.06
13604;BME280;24578;48.264;11.436;2022-10-17T13:05:54;96906.00;;;28.35;35.47
13604;BME280;24578;48.264;11.436;2022-10-17T13:09:00;96903.19;;;28.30;35.56
13604;BME280;24578;48.264;11.436;2022-10-17T13:12:02;96901.72;;;28.27;36.28
13604;BME280;24578;48.264;11.436;2022-10-17T13:15:03;96903.63;;;28.14;36.43
13604;BME280;24578;48.264;11.436;2022-10-17T13:18:12;96903.97;;;28.37;35.04
13604;BME280;24578;48.264;11.436;2022-10-17T13:21:18;96900.47;;;28.44;35.52
13604;BME280;24578;48.264;11.436;2022-10-17T13:24:20;96898.06;;;28.02;35.32
13604;BME280;24578;48.264;11.436;2022-10-17T13:27:30;96904.19;;;27.95;36.89
13604;BME280;24578;48.264;11.436;2022-10-17T13:30:32;96898.88;;;27.75;36.68
13604;BME280;24578;48.264;11.436;2022-10-17T13:33:34;96908.09;;;27.59;36.79
13604;BME280;24578;48.264;11.436;2022-10-17T13:36:34;96902.56;;;27.54;37.19
13604;BME280;24578;48.264;11.436;2022-10-17T13:39:36;96902.16;;;27.57;38.57
13604;BME280;24578;48.264;11.436;2022-10-17T13:42:38;96909.91;;;27.52;37.22
13604;BME280;24578;48.264;11.436;2022-10-17T13:45:43;96904.75;;;27.24;37.73
13604;BME280;24578;48.264;11.436;2022-10-17T13:48:43;96905.31;;;27.12;38.56
13604;BME280;24578;48.264;11.436;2022-10-17T13:51:44;96907.34;;;27.10;39.00
13604;BME280;24578;48.264;11.436;2022-10-17T13:54:46;96903.97;;;26.81;39.54
13604;BME280;24578;48.264;11.436;2022-10-17T13:57:47;96902.91;;;26.75;39.71
13604;BME280;24578;48.264;11.436;2022-10-17T14:00:49;96906.56;;;26.74;40.24
13604;BME280;24578;48.264;11.436;2022-10-17T14:03:51;96904.19;;;26.80;40.10
13604;BME280;24578;48.264;11.436;2022-10-17T14:06:51;96903.78;;;26.83;40.21
13604;BME280;24578;48.264;11.436;2022-10-17T14:09:52;96903.28;;;26.72;40.39
13604;BME280;24578;48.264;11.436;2022-10-17T14:12:53;96907.53;;;26.60;40.00
13604;BME280;24578;48.264;11.436;2022-10-17T14:15:54;96906.03;;;26.44;40.79
13604;BME280;24578;48.264;11.436;2022-10-17T14:18:55;96907.84;;;26.43;40.24
13604;BME280;24578;48.264;11.436;2022-10-17T14:25:34;96910.78;;;26.20;41.34
13604;BME280;24578;48.264;11.436;2022-10-17T14:28:37;96915.28;;;25.98;41.59
13604;BME280;24578;48.264;11.436;2022-10-17T14:31:38;96927.38;;;25.79;42.38
13604;BME280;24578;48.264;11.436;2022-10-17T14:34:39;96917.72;;;25.71;41.61
13604;BME280;24578;48.264;11.436;2022-10-17T14:37:41;96915.06;;;25.49;42.13
13604;BME280;24578;48.264;11.436;2022-10-17T14:40:52;96915.28;;;25.33;43.07
13604;BME280;24578;48.264;11.436;2022-10-17T14:43:59;96920.44;;;25.19;42.49
13604;BME280;24578;48.264;11.436;2022-10-17T14:47:04;96927.44;;;25.05;42.03
13604;BME280;24578;48.264;11.436;2022-10-17T14:50:16;96927.81;;;24.87;41.38
13604;BME280;24578;48.264;11.436;2022-10-17T14:53:19;96930.56;;;24.79;41.73
13604;BME280;24578;48.264;11.436;2022-10-17T14:56:21;96929.00;;;24.70;42.93
13604;BME280;24578;48.264;11.436;2022-10-17T14:59:22;96930.47;;;24.57;43.64
13604;BME280;24578;48.264;11.436;2022-10-17T15:02:25;96931.00;;;24.38;44.42
13604;BME280;24578;48.264;11.436;2022-10-17T15:05:26;96928.91;;;24.18;45.34
13604;BME280;24578;48.264;11.436;2022-10-17T15:08:26;96933.25;;;23.87;46.29
13604;BME280;24578;48.264;11.436;2022-10-17T15:11:26;96941.06;;;23.66;47.21
13604;BME280;24578;48.264;11.436;2022-10-17T15:14:27;96931.75;;;23.47;47.01
13604;BME280;24578;48.264;11.436;2022-10-17T15:17:28;96941.66;;;23.21;47.46
13604;BME280;24578;48.264;11.436;2022-10-17T15:20:29;96933.84;;;22.96;47.51
13604;BME280;24578;48.264;11.436;2022-10-17T15:23:29;96943.34;;;22.74;47.51
13604;BME280;24578;48.264;11.436;2022-10-17T15:26:30;96946.34;;;22.55;48.54
13604;BME280;24578;48.264;11.436;2022-10-17T15:29:31;96944.91;;;22.35;49.10
13604;BME280;24578;48.264;11.436;2022-10-17T15:32:32;96953.00;;;22.17;50.27
13604;BME280;24578;48.264;11.436;2022-10-17T15:35:32;96952.50;;;21.97;52.00
13604;BME280;24578;48.264;11.436;2022-10-17T15:38:32;96959.28;;;21.75;52.86
13604;BME280;24578;48.264;11.436;2022-10-17T15:41:32;96962.34;;;21.54;55.42
13604;BME280;24578;48.264;11.436;2022-10-17T15:44:32;96958.53;;;21.32;58.79
13604;BME280;24578;48.264;11.436;2022-10-17T15:47:33;96964.72;;;21.06;61.61
13604;BME280;24578;48.264;11.436;2022-10-17T15:50:33;96968.38;;;20.78;64.36
13604;BME280;24578;48.264;11.436;2022-10-17T15:53:33;96969.22;;;20.52;66.73
13604;BME280;24578;48.264;11.436;2022-10-17T15:56:37;96968.25;;;20.27;68.84
13604;BME280;24578;48.264;11.436;2022-10-17T15:59:38;96975.13;;;20.02;70.80
13604;BME280;24578;48.264;11.436;2022-10-17T16:02:38;96975.41;;;19.81;72.55
13604;BME280;24578;48.264;11.436;2022-10-17T16:05:39;96975.84;;;19.58;74.44
13604;BME280;24578;48.264;11.436;2022-10-17T16:08:39;96980.41;;;19.38;75.89
13604;BME280;24578;48.264;11.436;2022-10-17T16:11:40;96985.09;;;19.16;77.82
13604;BME280;24578;48.264;11.436;2022-10-17T16:14:41;96985.22;;;18.96;79.45
13604;BME280;24578;48.264;11.436;2022-10-17T16:17:41;96993.38;;;18.83;81.37
13604;BME280;24578;48.264;11.436;2022-10-17T16:20:42;96993.03;;;18.68;82.88
13604;BME280;24578;48.264;11.436;2022-10-17T16:23:43;96995.97;;;18.55;87.98
13604;BME280;24578;48.264;11.436;2022-10-17T16:26:44;96997.94;;;18.44;89.30
13604;BME280;24578;48.264;11.436;2022-10-17T16:29:44;97001.97;;;18.28;89.68
13604;BME280;24578;48.264;11.436;2022-10-17T16:32:45;97001.59;;;18.13;91.10
13604;BME280;24578;48.264;11.436;2022-10-17T16:35:46;97009.41;;;17.93;92.11
13604;BME280;24578;48.264;11.436;2022-10-17T16:38:48;97015.75;;;17.71;93.12
13604;BME280;24578;48.264;11.436;2022-10-17T16:41:50;97015.88;;;17.50;94.35
13604;BME280;24578;48.264;11.436;2022-10-17T16:44:50;97029.59;;;17.32;97.03
13604;BME280;24578;48.264;11.436;2022-10-17T16:47:50;97020.72;;;17.14;98.62
13604;BME280;24578;48.264;11.436;2022-10-17T16:50:52;97027.28;;;16.98;99.86
13604;BME280;24578;48.264;11.436;2022-10-17T16:53:52;97019.50;;;16.87;100.00
13604;BME280;24578;48.264;11.436;2022-10-17T16:56:55;97032.94;;;16.72;100.00
13604;BME280;24578;48.264;11.436;2022-10-17T16:59:56;97035.75;;;16.59;100.00
13604;BME280;24578;48.264;11.436;2022-10-17T17:02:56;97035.50;;;16.41;100.00
13604;BME280;24578;48.264;11.436;2022-10-17T17:05:57;97045.91;;;16.32;100.00
13604;BME280;24578;48.264;11.436;2022-10-17T17:08:57;97046.63;;;16.22;100.00
13604;BME280;24578;48.264;11.436;2022-10-17T17:11:57;97049.06;;;16.14;100.00
13604;BME280;24578;48.264;11.436;2022-10-17T17:14:57;97053.50;;;16.02;100.00
13604;BME280;24578;48.264;11.436;2022-10-17T17:17:58;97051.66;;;15.93;100.00
13604;BME280;24578;48.264;11.436;2022-10-17T17:21:02;97054.00;;;15.84;100.00
13604;BME280;24578;48.264;11.436;2022-10-17T17:24:03;97060.09;;;15.74;100.00
13604;BME280;24578;48.264;11.436;2022-10-17T17:27:03;97059.31;;;15.62;100.00
13604;BME280;24578;48.264;11.436;2022-10-17T17:30:04;97060.16;;;15.51;100.00
13604;BME280;24578;48.264;11.436;2022-10-17T17:33:04;97061.72;;;15.42;100.00
13604;BME280;24578;48.264;11.436;2022-10-17T17:36:05;97069.56;;;15.31;100.00
13604;BME280;24578;48.264;11.436;2022-10-17T17:39:06;97076.19;;;15.23;100.00
13604;BME280;24578;48.264;11.436;2022-10-17T17:42:07;97074.28;;;15.26;100.00